createdAt,value
2023-09-16T00:01:59.470Z,96787.41
2023-09-16T00:04:26.017Z,96785.66
2023-09-16T00:06:52.732Z,96787.94
2023-09-16T00:09:19.214Z,96793.53
2023-09-16T00:11:45.708Z,96782.56
2023-09-16T00:14:12.195Z,96773.41
2023-09-16T00:16:38.832Z,96776.50
2023-09-16T00:19:05.368Z,96775.88
2023-09-16T00:21:31.928Z,96782.00
2023-09-16T00:23:58.473Z,96784.53
2023-09-16T00:26:24.957Z,96785.09
2023-09-16T00:28:51.852Z,96780.81
2023-09-16T00:31:18.454Z,96789.09
2023-09-16T00:33:45.021Z,96790.94
2023-09-16T00:36:11.480Z,96794.13
2023-09-16T00:38:37.913Z,96797.78
2023-09-16T00:41:04.348Z,96801.72
2023-09-16T00:43:30.810Z,96805.44
2023-09-16T00:45:57.292Z,96795.59
2023-09-16T00:48:23.751Z,96797.69
2023-09-16T00:50:50.210Z,96800.06
2023-09-16T00:53:16.699Z,96810.06
2023-09-16T00:55:43.215Z,96807.81
2023-09-16T00:58:09.646Z,96801.72
2023-09-16T01:00:36.142Z,96795.56
2023-09-16T01:03:02.771Z,96792.97
2023-09-16T01:05:29.476Z,96799.41
2023-09-16T01:07:56.053Z,96798.75
2023-09-16T01:10:22.535Z,96794.94
2023-09-16T01:12:49.183Z,96792.66
2023-09-16T01:15:15.653Z,96794.69
2023-09-16T01:17:42.323Z,96796.97
2023-09-16T01:20:08.811Z,96787.25
2023-09-16T01:22:35.340Z,96791.50
2023-09-16T01:25:01.878Z,96795.00
2023-09-16T01:27:28.424Z,96801.13
2023-09-16T01:29:54.901Z,96794.91
2023-09-16T01:32:21.453Z,96801.09
2023-09-16T01:34:47.915Z,96809.38
2023-09-16T01:37:14.386Z,96804.38
2023-09-16T01:39:40.919Z,96792.34
2023-09-16T01:42:09.431Z,96787.03
2023-09-16T01:44:35.870Z,96781.97
2023-09-16T01:47:02.328Z,96783.69
2023-09-16T01:49:28.994Z,96781.97
2023-09-16T01:51:55.556Z,96776.41
2023-09-16T01:54:22.111Z,96777.31
2023-09-16T01:56:48.646Z,96771.31
2023-09-16T01:59:15.109Z,96764.47
2023-09-16T02:01:41.708Z,96766.47
2023-09-16T02:04:08.379Z,96766.28
2023-09-16T02:06:34.963Z,96770.88
2023-09-16T02:09:01.424Z,96775.59
2023-09-16T02:11:27.884Z,96770.41
2023-09-16T02:13:54.559Z,96774.81
2023-09-16T02:16:21.139Z,96766.72
2023-09-16T02:18:48.046Z,96775.31
2023-09-16T02:21:14.879Z,96766.25
2023-09-16T02:23:41.377Z,96756.69
2023-09-16T02:26:07.865Z,96758.28
2023-09-16T02:28:34.311Z,96747.75
2023-09-16T02:31:00.866Z,96755.50
2023-09-16T02:33:27.398Z,96751.69
2023-09-16T02:35:53.852Z,96734.94
2023-09-16T02:38:20.325Z,96742.75
2023-09-16T02:40:46.696Z,96735.16
2023-09-16T02:43:13.149Z,96749.13
2023-09-16T02:45:39.689Z,96744.00
2023-09-16T02:48:06.349Z,96738.16
2023-09-16T02:50:32.872Z,96730.78
2023-09-16T02:53:09.576Z,96743.59
2023-09-16T02:55:36.014Z,96742.41
2023-09-16T02:58:02.580Z,96742.25
2023-09-16T03:00:29.121Z,96732.56
2023-09-16T03:02:55.691Z,96729.63
2023-09-16T03:05:22.213Z,96721.06
2023-09-16T03:07:48.664Z,96733.84
2023-09-16T03:10:15.106Z,96729.34
2023-09-16T03:12:41.674Z,96721.38
2023-09-16T03:15:08.140Z,96722.91
2023-09-16T03:17:34.630Z,96721.72
2023-09-16T03:20:01.088Z,96726.94
2023-09-16T03:22:27.506Z,96725.25
2023-09-16T03:24:54.035Z,96722.34
2023-09-16T03:27:20.546Z,96714.97
2023-09-16T03:29:47.194Z,96709.66
2023-09-16T03:32:13.643Z,96704.69
2023-09-16T03:34:40.083Z,96704.84
2023-09-16T03:37:06.546Z,96698.81
2023-09-16T03:39:33.071Z,96705.25
2023-09-16T03:41:59.571Z,96688.53
2023-09-16T03:44:26.021Z,96687.00
2023-09-16T03:46:52.674Z,96687.25
2023-09-16T03:49:19.169Z,96683.28
2023-09-16T03:51:45.691Z,96679.63
2023-09-16T03:54:12.128Z,96681.50
2023-09-16T03:56:38.592Z,96676.59
2023-09-16T03:59:05.186Z,96674.84
2023-09-16T04:01:31.679Z,96680.13
2023-09-16T04:03:58.233Z,96674.00
2023-09-16T04:06:24.734Z,96672.47
2023-09-16T04:08:51.220Z,96676.59
2023-09-16T04:11:17.783Z,96679.50
2023-09-16T04:13:44.222Z,96684.72
2023-09-16T04:16:10.770Z,96684.38
2023-09-16T04:18:37.415Z,96693.03
2023-09-16T04:21:04.211Z,96690.31
2023-09-16T04:23:31.046Z,96694.22
2023-09-16T04:25:57.751Z,96679.09
2023-09-16T04:28:24.364Z,96672.06
2023-09-16T04:30:50.933Z,96667.94
2023-09-16T04:33:17.420Z,96669.34
2023-09-16T04:35:43.945Z,96661.84
2023-09-16T04:38:10.418Z,96673.84
2023-09-16T04:40:36.896Z,96663.13
2023-09-16T04:43:03.345Z,96673.28
2023-09-16T04:45:29.810Z,96676.84
2023-09-16T04:47:56.317Z,96685.63
2023-09-16T04:50:22.828Z,96680.59
2023-09-16T04:52:49.413Z,96681.13
2023-09-16T04:55:15.958Z,96673.75
2023-09-16T04:57:42.580Z,96660.94
2023-09-16T05:00:09.134Z,96667.81
2023-09-16T05:02:35.591Z,96669.94
2023-09-16T05:05:02.084Z,96675.06
2023-09-16T05:07:28.530Z,96669.06
2023-09-16T05:09:55.162Z,96670.06
2023-09-16T05:12:21.619Z,96663.53
2023-09-16T05:14:48.059Z,96659.63
2023-09-16T05:17:14.560Z,96661.84
2023-09-16T05:19:41.005Z,96667.16
2023-09-16T05:22:07.539Z,96660.00
2023-09-16T05:24:34.165Z,96669.41
2023-09-16T05:27:00.632Z,96669.44
2023-09-16T05:29:27.070Z,96673.66
2023-09-16T05:31:53.542Z,96680.19
2023-09-16T05:34:20.019Z,96688.19
2023-09-16T05:36:46.569Z,96683.88
2023-09-16T05:39:13.167Z,96693.09
2023-09-16T05:41:39.829Z,96701.22
2023-09-16T05:44:06.272Z,96709.72
2023-09-16T05:46:32.908Z,96714.34
2023-09-16T05:48:59.536Z,96711.47
2023-09-16T05:51:26.017Z,96709.97
2023-09-16T05:53:52.447Z,96724.59
2023-09-16T05:56:18.898Z,96741.81
2023-09-16T05:58:45.346Z,96733.81
2023-09-16T06:01:11.940Z,96732.72
2023-09-16T06:03:38.556Z,96745.22
2023-09-16T06:06:05.073Z,96751.97
2023-09-16T06:08:31.574Z,96734.91
2023-09-16T06:10:58.110Z,96730.00
2023-09-16T06:13:24.758Z,96731.59
2023-09-16T06:15:51.354Z,96737.34
2023-09-16T06:18:17.857Z,96732.91
2023-09-16T06:20:44.393Z,96718.97
2023-09-16T06:23:10.929Z,96714.47
2023-09-16T06:25:37.401Z,96731.81
2023-09-16T06:28:03.991Z,96730.28
2023-09-16T06:30:30.547Z,96735.69
2023-09-16T06:32:57.155Z,96737.31
2023-09-16T06:35:23.584Z,96746.88
2023-09-16T06:37:50.120Z,96751.72
2023-09-16T06:40:16.621Z,96760.81
2023-09-16T06:42:43.222Z,96744.94
2023-09-16T06:45:09.665Z,96740.41
2023-09-16T06:47:36.238Z,96748.44
2023-09-16T06:50:02.732Z,96755.69
2023-09-16T06:52:29.223Z,96759.28
2023-09-16T06:54:55.730Z,96765.91
2023-09-16T06:57:22.177Z,96782.06
2023-09-16T06:59:48.665Z,96775.72
2023-09-16T07:02:15.141Z,96781.44
2023-09-16T07:04:41.712Z,96785.56
2023-09-16T07:07:08.248Z,96783.78
2023-09-16T07:09:34.774Z,96786.50
2023-09-16T07:12:01.213Z,96788.03
2023-09-16T07:14:27.842Z,96784.78
2023-09-16T07:16:54.343Z,96761.41
2023-09-16T07:19:20.983Z,96748.88
2023-09-16T07:21:47.573Z,96752.06
2023-09-16T07:24:14.125Z,96747.78
2023-09-16T07:26:40.567Z,96744.28
2023-09-16T07:29:07.070Z,96749.16
2023-09-16T07:31:33.565Z,96758.09
2023-09-16T07:34:00.121Z,96764.63
2023-09-16T07:36:26.647Z,96767.53
2023-09-16T07:38:53.196Z,96777.63
2023-09-16T07:41:19.723Z,96776.84
2023-09-16T07:43:46.250Z,96798.56
2023-09-16T07:46:12.817Z,96815.00
2023-09-16T07:48:39.609Z,96818.22
2023-09-16T07:51:06.091Z,96813.44
2023-09-16T07:53:32.599Z,96810.22
2023-09-16T07:55:59.056Z,96805.72
2023-09-16T07:58:25.535Z,96795.84
2023-09-16T08:00:52.133Z,96797.84
2023-09-16T08:03:18.844Z,96791.22
2023-09-16T08:05:45.477Z,96786.72
2023-09-16T08:08:12.089Z,96777.00
2023-09-16T08:10:38.613Z,96763.53
2023-09-16T08:13:05.176Z,96780.16
2023-09-16T08:15:31.688Z,96798.19
2023-09-16T08:17:58.180Z,96818.53
2023-09-16T08:20:24.626Z,96832.75
2023-09-16T08:22:51.099Z,96844.53
2023-09-16T08:25:17.577Z,96834.91
2023-09-16T08:27:44.409Z,96834.31
2023-09-16T08:30:10.908Z,96835.91
2023-09-16T08:32:37.531Z,96844.00
2023-09-16T08:35:04.015Z,96830.81
2023-09-16T08:37:30.658Z,96821.91
2023-09-16T08:39:57.135Z,96809.50
2023-09-16T08:42:23.668Z,96801.94
2023-09-16T08:44:50.396Z,96816.06
2023-09-16T08:47:17.054Z,96844.41
2023-09-16T08:49:43.716Z,96861.59
2023-09-16T08:52:10.291Z,96864.44
2023-09-16T08:54:36.727Z,96871.78
2023-09-16T08:57:03.286Z,96869.09
2023-09-16T08:59:29.705Z,96873.47
2023-09-16T09:01:56.426Z,96868.16
2023-09-16T09:04:23.034Z,96864.00
2023-09-16T09:06:49.543Z,96869.63
2023-09-16T09:09:16.148Z,96872.84
2023-09-16T09:11:43.071Z,96882.00
2023-09-16T09:14:10.347Z,96889.28
2023-09-16T09:16:36.867Z,96880.59
2023-09-16T09:19:03.470Z,96879.00
2023-09-16T09:21:29.980Z,96877.38
2023-09-16T09:23:56.442Z,96874.72
2023-09-16T09:26:23.018Z,96871.81
2023-09-16T09:28:49.772Z,96872.28
2023-09-16T09:31:16.741Z,96879.91
2023-09-16T09:33:43.515Z,96882.78
2023-09-16T09:36:10.279Z,96888.72
2023-09-16T09:38:36.764Z,96896.06
2023-09-16T09:41:03.232Z,96896.44
2023-09-16T09:43:29.691Z,96896.25
2023-09-16T09:45:56.223Z,96901.06
2023-09-16T09:48:22.792Z,96893.66
2023-09-16T09:50:49.217Z,96886.19
2023-09-16T09:53:15.662Z,96879.78
2023-09-16T09:55:42.126Z,96877.16
2023-09-16T09:58:08.613Z,96872.25
2023-09-16T10:00:35.055Z,96869.44
2023-09-16T10:03:01.654Z,96869.13
2023-09-16T10:05:28.237Z,96866.09
2023-09-16T10:07:54.819Z,96860.66
2023-09-16T10:10:21.492Z,96856.78
2023-09-16T10:12:48.159Z,96859.53
2023-09-16T10:15:14.651Z,96849.56
2023-09-16T10:17:41.301Z,96858.69
2023-09-16T10:20:07.750Z,96840.78
2023-09-16T10:22:34.216Z,96850.47
2023-09-16T10:25:00.727Z,96850.00
2023-09-16T10:27:27.278Z,96849.75
2023-09-16T10:29:53.743Z,96851.53
2023-09-16T10:32:20.781Z,96845.59
2023-09-16T10:34:47.485Z,96835.97
2023-09-16T10:37:14.051Z,96829.91
2023-09-16T10:39:40.656Z,96841.88
2023-09-16T10:42:07.116Z,96836.97
2023-09-16T10:44:33.642Z,96844.78
2023-09-16T10:47:00.280Z,96841.91
2023-09-16T10:49:26.984Z,96859.03
2023-09-16T10:51:53.546Z,96861.44
2023-09-16T10:54:20.231Z,96855.84
2023-09-16T10:56:46.872Z,96850.44
2023-09-16T10:59:13.365Z,96843.25
2023-09-16T11:01:39.893Z,96836.59
2023-09-16T11:04:06.492Z,96842.16
2023-09-16T11:06:32.930Z,96843.50
2023-09-16T11:08:59.373Z,96843.63
2023-09-16T11:11:25.888Z,96846.66
2023-09-16T11:13:52.547Z,96838.59
2023-09-16T11:16:19.203Z,96849.22
2023-09-16T11:18:45.736Z,96868.00
2023-09-16T11:21:14.217Z,96866.94
2023-09-16T11:23:40.776Z,96871.84
2023-09-16T11:26:07.257Z,96866.19
2023-09-16T11:28:34.008Z,96865.16
2023-09-16T11:31:00.545Z,96867.72
2023-09-16T11:33:27.155Z,96866.47
2023-09-16T11:35:53.716Z,96851.09
2023-09-16T11:38:20.243Z,96858.56
2023-09-16T11:40:46.798Z,96869.78
2023-09-16T11:43:13.386Z,96870.41
2023-09-16T11:45:39.969Z,96873.31
2023-09-16T11:48:06.534Z,96881.47
2023-09-16T11:50:33.033Z,96869.47
2023-09-16T11:52:59.644Z,96873.44
2023-09-16T11:55:26.141Z,96884.16
2023-09-16T11:57:52.606Z,96890.97
2023-09-16T12:00:19.105Z,96887.06
2023-09-16T12:02:45.791Z,96890.56
2023-09-16T12:05:12.325Z,96883.69
2023-09-16T12:07:38.771Z,96888.91
2023-09-16T12:10:05.514Z,96879.28
2023-09-16T12:12:32.047Z,96867.34
2023-09-16T12:14:58.567Z,96868.66
2023-09-16T12:17:25.085Z,96869.44
2023-09-16T12:19:51.658Z,96867.69
2023-09-16T12:22:18.324Z,96852.47
2023-09-16T12:24:44.954Z,96858.09
2023-09-16T12:27:11.508Z,96851.84
2023-09-16T12:29:38.084Z,96855.50
2023-09-16T12:32:04.639Z,96855.50
2023-09-16T12:34:31.167Z,96859.22
2023-09-16T12:36:57.769Z,96855.97
2023-09-16T12:39:24.323Z,96853.25
2023-09-16T12:42:04.711Z,96847.34
2023-09-16T12:44:37.703Z,96849.75
2023-09-16T12:47:04.280Z,96832.41
2023-09-16T12:49:30.902Z,96829.22
2023-09-16T12:51:57.610Z,96829.50
2023-09-16T12:54:24.164Z,96825.91
2023-09-16T12:56:50.656Z,96827.69
2023-09-16T12:59:17.169Z,96829.69
2023-09-16T13:01:43.836Z,96829.84
2023-09-16T13:04:10.374Z,96823.63
2023-09-16T13:06:36.858Z,96819.38
2023-09-16T13:09:03.380Z,96818.94
2023-09-16T13:11:30.025Z,96823.53
2023-09-16T13:13:56.593Z,96818.94
2023-09-16T13:16:23.360Z,96821.69
2023-09-16T13:18:50.011Z,96807.72
2023-09-16T13:21:16.812Z,96810.31
2023-09-16T13:23:43.336Z,96812.22
2023-09-16T13:26:10.051Z,96820.69
2023-09-16T13:28:36.556Z,96813.78
2023-09-16T13:31:03.055Z,96816.53
2023-09-16T13:33:29.589Z,96818.41
2023-09-16T13:35:56.081Z,96803.66
2023-09-16T13:38:22.644Z,96801.88
2023-09-16T13:40:49.255Z,96798.81
2023-09-16T13:43:15.819Z,96800.84
2023-09-16T13:45:42.367Z,96802.88
2023-09-16T13:48:08.829Z,96803.31
2023-09-16T13:50:35.329Z,96802.56
2023-09-16T13:53:01.824Z,96803.34
2023-09-16T13:55:29.626Z,96809.81
2023-09-16T13:57:58.127Z,96807.03
2023-09-16T14:00:24.641Z,96803.53
2023-09-16T14:02:51.276Z,96798.84
2023-09-16T14:05:17.859Z,96793.72
2023-09-16T14:07:44.385Z,96791.59
2023-09-16T14:10:10.950Z,96783.88
2023-09-16T14:12:38.590Z,96769.03
2023-09-16T14:15:05.178Z,96773.78
2023-09-16T14:17:31.724Z,96786.28
2023-09-16T14:19:58.299Z,96776.63
2023-09-16T14:22:24.822Z,96779.34
2023-09-16T14:24:51.374Z,96791.13
2023-09-16T14:27:17.825Z,96776.69
2023-09-16T14:29:44.281Z,96779.59
2023-09-16T14:32:10.761Z,96772.72
2023-09-16T14:34:37.374Z,96765.53
2023-09-16T14:37:03.983Z,96764.94
2023-09-16T14:39:30.450Z,96760.59
2023-09-16T14:41:56.898Z,96754.84
2023-09-16T14:44:23.367Z,96751.66
2023-09-16T14:46:49.921Z,96755.22
2023-09-16T14:49:16.630Z,96749.38
2023-09-16T14:51:43.128Z,96754.84
2023-09-16T14:54:09.692Z,96752.16
2023-09-16T14:56:36.120Z,96747.06
2023-09-16T14:59:02.563Z,96751.56
2023-09-16T15:01:29.236Z,96748.03
2023-09-16T15:03:55.820Z,96755.47
2023-09-16T15:06:22.352Z,96757.78
2023-09-16T15:08:49.295Z,96757.72
2023-09-16T15:11:16.133Z,96761.66
2023-09-16T15:13:42.629Z,96765.53
2023-09-16T15:16:09.179Z,96765.59
2023-09-16T15:18:35.826Z,96764.59
2023-09-16T15:21:02.436Z,96761.97
2023-09-16T15:23:29.028Z,96762.56
2023-09-16T15:25:55.597Z,96760.63
2023-09-16T15:28:22.073Z,96768.00
2023-09-16T15:30:48.761Z,96769.38
2023-09-16T15:33:15.271Z,96774.44
2023-09-16T15:35:41.744Z,96775.28
2023-09-16T15:38:08.233Z,96767.63
2023-09-16T15:40:34.746Z,96779.19
2023-09-16T15:43:01.320Z,96764.56
2023-09-16T15:45:27.826Z,96768.25
2023-09-16T15:47:54.366Z,96762.81
2023-09-16T15:50:20.993Z,96766.50
2023-09-16T15:52:47.604Z,96776.50
2023-09-16T15:55:14.083Z,96766.28
2023-09-16T15:57:40.765Z,96772.63
2023-09-16T16:00:07.261Z,96783.44
2023-09-16T16:02:33.815Z,96783.69
2023-09-16T16:05:00.372Z,96784.69
2023-09-16T16:07:26.831Z,96783.81
2023-09-16T16:09:53.372Z,96778.09
2023-09-16T16:12:20.078Z,96775.16
2023-09-16T16:14:46.545Z,96772.66
2023-09-16T16:17:23.227Z,96775.09
2023-09-16T16:19:50.703Z,96776.13
2023-09-16T16:22:17.290Z,96770.66
2023-09-16T16:24:43.769Z,96775.31
2023-09-16T16:27:10.365Z,96765.63
2023-09-16T16:29:36.837Z,96759.59
2023-09-16T16:32:03.356Z,96757.22
2023-09-16T16:34:29.944Z,96752.53
2023-09-16T16:36:56.479Z,96754.91
2023-09-16T16:39:22.969Z,96757.06
2023-09-16T16:41:52.395Z,96752.41
2023-09-16T16:44:18.949Z,96751.16
2023-09-16T16:46:48.286Z,96745.91
2023-09-16T16:49:16.206Z,96739.31
2023-09-16T16:51:42.664Z,96735.31
2023-09-16T16:54:11.196Z,96740.44
2023-09-16T16:56:37.688Z,96733.78
2023-09-16T16:59:04.272Z,96736.78
2023-09-16T17:01:30.927Z,96738.78
2023-09-16T17:03:57.485Z,96731.56
2023-09-16T17:06:24.125Z,96735.56
2023-09-16T17:08:50.724Z,96731.28
2023-09-16T17:11:17.177Z,96726.41
2023-09-16T17:13:43.620Z,96740.19
2023-09-16T17:16:10.244Z,96737.69
2023-09-16T17:18:36.884Z,96739.31
2023-09-16T17:21:03.342Z,96738.34
2023-09-16T17:23:29.838Z,96751.91
2023-09-16T17:25:56.455Z,96754.22
2023-09-16T17:28:23.010Z,96752.63
2023-09-16T17:30:49.496Z,96749.56
2023-09-16T17:33:15.966Z,96751.47
2023-09-16T17:35:42.445Z,96750.03
2023-09-16T17:38:09.047Z,96744.63
2023-09-16T17:40:35.568Z,96750.97
2023-09-16T17:43:02.062Z,96750.69
2023-09-16T17:45:28.547Z,96746.56
2023-09-16T17:47:55.063Z,96751.72
2023-09-16T17:50:21.624Z,96745.91
2023-09-16T17:52:48.245Z,96750.28
2023-09-16T17:55:14.751Z,96742.28
2023-09-16T17:57:41.246Z,96750.94
2023-09-16T18:00:07.854Z,96756.22
2023-09-16T18:02:34.326Z,96757.06
2023-09-16T18:05:00.809Z,96759.28
2023-09-16T18:07:27.357Z,96767.47
2023-09-16T18:09:53.881Z,96773.09
2023-09-16T18:12:20.413Z,96768.63
2023-09-16T18:14:46.955Z,96774.06
2023-09-16T18:17:13.453Z,96771.47
2023-09-16T18:19:40.048Z,96778.22
2023-09-16T18:22:06.746Z,96779.16
2023-09-16T18:24:33.233Z,96778.19
2023-09-16T18:26:59.691Z,96790.84
2023-09-16T18:29:26.197Z,96799.81
2023-09-16T18:31:52.750Z,96799.00
2023-09-16T18:34:19.379Z,96799.81
2023-09-16T18:36:45.956Z,96805.56
2023-09-16T18:39:12.531Z,96810.03
2023-09-16T18:41:39.023Z,96809.91
2023-09-16T18:44:05.686Z,96816.25
2023-09-16T18:46:32.270Z,96824.41
2023-09-16T18:48:59.078Z,96821.38
2023-09-16T18:51:25.793Z,96826.97
2023-09-16T18:53:52.510Z,96830.03
2023-09-16T18:56:19.282Z,96824.78
2023-09-16T18:58:45.742Z,96821.06
2023-09-16T19:01:12.349Z,96826.53
2023-09-16T19:03:38.982Z,96829.75
2023-09-16T19:06:05.456Z,96833.38
2023-09-16T19:08:31.902Z,96839.25
2023-09-16T19:10:58.343Z,96853.50
2023-09-16T19:13:24.810Z,96848.47
2023-09-16T19:15:51.415Z,96853.13
2023-09-16T19:18:17.919Z,96863.19
2023-09-16T19:20:44.397Z,96865.72
2023-09-16T19:23:10.859Z,96868.97
2023-09-16T19:25:37.450Z,96875.16
2023-09-16T19:28:04.045Z,96877.25
2023-09-16T19:30:30.537Z,96884.28
2023-09-16T19:32:57.834Z,96880.63
2023-09-16T19:35:24.641Z,96887.72
2023-09-16T19:37:51.087Z,96877.97
2023-09-16T19:40:17.836Z,96875.66
2023-09-16T19:42:44.306Z,96882.34
2023-09-16T19:45:10.786Z,96882.88
2023-09-16T19:47:37.467Z,96884.06
2023-09-16T19:50:04.190Z,96876.41
2023-09-16T19:52:30.689Z,96879.25
2023-09-16T19:54:57.300Z,96880.53
2023-09-16T19:57:23.765Z,96880.16
2023-09-16T19:59:50.223Z,96888.28
2023-09-16T20:02:16.810Z,96883.06
2023-09-16T20:04:43.354Z,96884.94
2023-09-16T20:07:09.876Z,96895.63
2023-09-16T20:09:36.534Z,96894.50
2023-09-16T20:12:03.043Z,96901.19
2023-09-16T20:14:29.572Z,96902.34
2023-09-16T20:16:56.158Z,96899.69
2023-09-16T20:19:22.849Z,96896.13
2023-09-16T20:21:49.365Z,96900.13
2023-09-16T20:24:15.856Z,96898.72
2023-09-16T20:26:42.340Z,96905.75
2023-09-16T20:29:08.818Z,96899.97
2023-09-16T20:31:35.401Z,96899.91
2023-09-16T20:34:11.638Z,96904.94
2023-09-16T20:36:38.650Z,96908.00
2023-09-16T20:39:05.084Z,96905.47
2023-09-16T20:41:31.562Z,96906.03
2023-09-16T20:43:58.184Z,96910.50
2023-09-16T20:46:24.683Z,96915.75
2023-09-16T20:48:51.168Z,96910.06
2023-09-16T20:51:17.638Z,96907.50
2023-09-16T20:53:44.078Z,96912.53
2023-09-16T20:56:10.600Z,96913.94
2023-09-16T20:58:37.186Z,96915.06
2023-09-16T21:01:03.687Z,96916.78
2023-09-16T21:03:30.265Z,96917.44
2023-09-16T21:05:56.802Z,96915.22
2023-09-16T21:08:23.309Z,96919.19
2023-09-16T21:10:50.062Z,96912.94
2023-09-16T21:13:16.563Z,96911.97
2023-09-16T21:15:43.273Z,96900.72
2023-09-16T21:18:09.843Z,96903.63
2023-09-16T21:20:36.292Z,96904.53
2023-09-16T21:23:03.193Z,96905.69
2023-09-16T21:25:29.746Z,96897.44
2023-09-16T21:27:56.370Z,96899.78
2023-09-16T21:30:22.874Z,96895.50
2023-09-16T21:32:49.590Z,96896.19
2023-09-16T21:35:16.151Z,96901.94
2023-09-16T21:37:42.617Z,96899.78
2023-09-16T21:40:09.238Z,96900.81
2023-09-16T21:42:35.910Z,96890.22
2023-09-16T21:45:02.408Z,96897.56
2023-09-16T21:47:28.885Z,96905.91
2023-09-16T21:49:55.400Z,96906.53
2023-09-16T21:52:21.886Z,96894.25
2023-09-16T21:54:48.443Z,96900.38
2023-09-16T21:57:14.926Z,96897.75
2023-09-16T21:59:41.426Z,96902.50
2023-09-16T22:02:07.967Z,96907.50
2023-09-16T22:04:34.623Z,96897.66
2023-09-16T22:07:01.438Z,96888.66
2023-09-16T22:09:28.034Z,96886.16
2023-09-16T22:11:54.512Z,96880.25
2023-09-16T22:14:20.967Z,96880.63
2023-09-16T22:16:47.514Z,96881.81
2023-09-16T22:19:16.953Z,96886.88
2023-09-16T22:21:43.463Z,96887.84
2023-09-16T22:24:09.936Z,96893.75
2023-09-16T22:26:36.434Z,96896.16
2023-09-16T22:29:02.896Z,96899.09
2023-09-16T22:31:29.404Z,96892.06
2023-09-16T22:33:55.917Z,96900.38
2023-09-16T22:36:22.365Z,96907.41
2023-09-16T22:38:49.195Z,96900.28
2023-09-16T22:41:16.036Z,96904.19
2023-09-16T22:43:42.630Z,96901.19
2023-09-16T22:46:09.115Z,96913.59
2023-09-16T22:48:35.610Z,96908.09
2023-09-16T22:51:02.043Z,96902.09
2023-09-16T22:53:28.514Z,96897.88
2023-09-16T22:55:54.981Z,96888.53
2023-09-16T22:58:21.481Z,96883.81
2023-09-16T23:00:48.164Z,96877.91
2023-09-16T23:03:14.726Z,96894.56
2023-09-16T23:05:41.293Z,96894.94
2023-09-16T23:08:07.753Z,96902.81
2023-09-16T23:10:34.377Z,96900.06
2023-09-16T23:13:00.933Z,96909.34
2023-09-16T23:15:27.475Z,96908.09
2023-09-16T23:17:53.967Z,96907.06
2023-09-16T23:20:20.451Z,96918.63
2023-09-16T23:22:46.956Z,96925.13
2023-09-16T23:25:13.463Z,96923.75
2023-09-16T23:27:39.982Z,96926.69
2023-09-16T23:30:06.557Z,96924.78
2023-09-16T23:32:33.126Z,96927.16
2023-09-16T23:34:59.664Z,96927.19
2023-09-16T23:37:26.160Z,96919.09
2023-09-16T23:39:52.597Z,96917.78
2023-09-16T23:42:19.114Z,96924.63
2023-09-16T23:44:45.681Z,96926.75
2023-09-16T23:47:12.314Z,96927.13
2023-09-16T23:49:38.965Z,96928.22
2023-09-16T23:52:05.560Z,96934.03
2023-09-16T23:54:31.989Z,96927.06
2023-09-16T23:56:58.438Z,96924.59
2023-09-16T23:59:24.912Z,96923.09
